Strona główna
METAR-TAF:

METAR-TAF

Lotnisko :

Port lotniczy Gibraltar

Gibraltar, Gibraltar

Szerokość geograficzna: 36-09N, Długość geograficzna: 005-21W, wysokość: 5 m

Aktualna obserwacja pogody

Raport powstał 31 minut temu, godzina 16:20 UTC
Wiatr 14 kt od zachodnio-południowy zachód
Temperatura 27°C
Wilgotność 51%
Ciśnienie 1014 hPa
Widzialność 10 km lub więcej
Mało chmury na wysokości 6000 ft
Przerywane chmury na wysokości 25000 ft

METAR: LXGB 191620Z 25014KT 9999 FEW060 BKN250 27/16 Q1014 NOSIG RMK BLU BLU

czas: 18:51 (16:51 UTC)

Prognoza

Raport powstał 3 godziny i 14 minut temu, godzina 13:37 UTC
Prognoza ważna od 19 godzina 15 UTC do 19 godzina 22 UTC
Wiatr 15 kt od południe
Widzialność 10 km lub więcej
Mało chmury na wysokości 5000 ft
Stopniowe zmiany
od 19 godzina 16 UTC do 19 godzina 18 UTC
Wiatr 14 kt od zachód

TAF: LXGB 191337Z 1915/1922 19015KT 9999 FEW050 520001 BECMG 1916/1918 26014KT 50////

Obserwacja i prognoza pogody dla ponad 4000 lotnisk (raport METAR i TAF).

Dostępne stacje oznaczono żółtymi i czerwonymi punktami na mapie.

Najedź kursorem aby zobaczyć nazwę stacji.

Kliknij aby zobaczyć obserwacje i prognozy pogody.

Aby zmienić mapę: kliknij na zielony przycisk z czarnym krzyżykiem, aby powiększyć; na zielony przycisk z myślnikiem, aby pomniejszyć; na zielone strzałki, aby przejść do map sąsiednich.


METAR-TAF: